createdAt,value
2022-11-16T19:13:53.315Z,4.20
2022-11-16T19:16:23.899Z,4.57
2022-11-16T19:18:54.891Z,4.43
2022-11-16T19:21:25.042Z,4.18
2022-11-16T19:23:55.001Z,4.23
2022-11-16T19:26:24.508Z,4.43
2022-11-16T19:28:54.485Z,4.47
2022-11-16T19:31:24.131Z,4.50
2022-11-16T19:33:56.146Z,4.65
2022-11-16T19:36:25.739Z,4.68
2022-11-16T19:38:56.034Z,4.90
2022-11-16T19:41:25.023Z,4.47
2022-11-16T19:43:57.311Z,5.00
2022-11-16T19:46:28.314Z,4.80
2022-11-16T19:48:58.654Z,5.23
2022-11-16T19:51:28.117Z,5.27
2022-11-16T19:54:02.873Z,5.23
2022-11-16T19:56:33.918Z,5.20
2022-11-16T19:59:06.281Z,5.10
2022-11-16T20:01:36.351Z,5.87
2022-11-16T20:04:06.701Z,5.33
2022-11-16T20:06:38.571Z,6.15
2022-11-16T20:09:09.431Z,5.60
2022-11-16T20:11:38.970Z,6.03
2022-11-16T20:14:10.538Z,6.63
2022-11-16T20:16:42.313Z,6.72
2022-11-16T20:19:11.351Z,6.50
2022-11-16T20:21:41.393Z,6.60
2022-11-16T20:24:12.476Z,7.23
2022-11-16T20:26:49.753Z,6.97
2022-11-16T20:29:20.440Z,6.67
2022-11-16T20:31:48.770Z,7.18
2022-11-16T20:34:20.228Z,7.70
2022-11-16T20:36:50.816Z,7.25
2022-11-16T20:39:20.584Z,7.33
2022-11-16T20:41:49.068Z,7.88
2022-11-16T20:44:22.215Z,7.25
2022-11-16T20:46:52.389Z,7.22
2022-11-16T20:49:20.566Z,7.60
2022-11-16T20:52:00.362Z,7.50
2022-11-16T20:54:28.567Z,7.93
2022-11-16T20:56:56.689Z,7.53
2022-11-16T20:59:33.182Z,7.60
2022-11-16T21:02:01.510Z,7.65
2022-11-16T21:04:29.477Z,8.02
2022-11-16T21:06:59.255Z,9.48
2022-11-16T21:09:28.029Z,8.60
2022-11-16T21:12:16.659Z,9.00
2022-11-16T21:14:46.714Z,9.32
2022-11-16T21:17:17.649Z,8.80
2022-11-16T21:20:05.448Z,9.40
2022-11-16T21:22:33.766Z,9.50
2022-11-16T21:25:03.376Z,9.35
2022-11-16T21:27:34.125Z,9.53
2022-11-16T21:30:04.730Z,9.73
2022-11-16T21:32:34.607Z,9.93
2022-11-16T21:35:02.866Z,8.23
2022-11-16T21:37:31.156Z,9.70
2022-11-16T21:39:59.186Z,9.80
2022-11-16T21:42:27.214Z,9.52
2022-11-16T21:44:58.450Z,9.47
2022-11-16T21:47:29.994Z,9.23
2022-11-16T21:52:52.116Z,9.43
2022-11-16T21:55:26.271Z,8.75
2022-11-16T21:57:54.438Z,9.15
2022-11-16T22:00:22.605Z,8.93
2022-11-16T22:02:52.072Z,9.63
2022-11-16T22:05:37.487Z,7.97
2022-11-16T22:08:06.598Z,9.00
2022-11-16T22:10:34.761Z,8.52
2022-11-16T22:13:03.148Z,8.43
2022-11-16T22:15:31.424Z,8.50
2022-11-16T22:18:02.100Z,8.17
2022-11-16T22:20:30.361Z,7.47
2022-11-16T22:22:58.375Z,7.40
2022-11-16T22:25:26.958Z,7.15
2022-11-16T22:30:46.149Z,6.00
2022-11-16T22:33:18.133Z,5.40
2022-11-16T22:35:48.074Z,4.95
2022-11-16T22:38:16.305Z,5.38
2022-11-16T22:40:50.608Z,5.22
2022-11-16T22:43:19.138Z,5.40
2022-11-16T22:45:47.297Z,5.00
2022-11-16T22:48:15.791Z,5.00
2022-11-16T22:50:45.131Z,4.88
2022-11-16T22:53:13.256Z,4.80
2022-11-16T22:55:41.380Z,4.72
2022-11-16T22:58:09.480Z,4.32
2022-11-16T23:00:41.743Z,4.45
2022-11-16T23:03:10.554Z,4.55
2022-11-16T23:05:38.858Z,4.10
2022-11-16T23:08:08.316Z,4.07
2022-11-16T23:10:56.378Z,4.30
2022-11-16T23:13:41.921Z,3.85
2022-11-16T23:16:10.193Z,3.83
2022-11-16T23:18:38.205Z,4.55
2022-11-16T23:21:32.629Z,4.28
2022-11-16T23:24:22.072Z,4.03
2022-11-16T23:27:07.588Z,4.22
2022-11-16T23:29:35.829Z,3.80
2022-11-16T23:32:03.872Z,3.58
2022-11-16T23:34:32.009Z,3.80
2022-11-16T23:37:03.540Z,3.60
2022-11-16T23:39:33.625Z,3.65
2022-11-16T23:42:19.161Z,3.55
2022-11-16T23:44:47.363Z,3.38
2022-11-16T23:47:15.388Z,3.63
2022-11-16T23:49:43.564Z,3.43
2022-11-16T23:52:11.632Z,3.30
2022-11-16T23:54:41.152Z,3.60
2022-11-16T23:57:09.412Z,3.40
2022-11-16T23:59:37.536Z,3.23
